createdAt,value
2018-04-27T00:00:32.647Z,101070
2018-04-27T00:05:37.097Z,101069
2018-04-27T00:10:40.191Z,101068
2018-04-27T00:15:43.986Z,101060
2018-04-27T00:20:47.063Z,101052
2018-04-27T00:25:51.501Z,101054
2018-04-27T00:30:54.972Z,101050
2018-04-27T00:35:59.572Z,101047
2018-04-27T00:41:03.431Z,101042
2018-04-27T00:46:07.492Z,101036
2018-04-27T00:51:11.361Z,101027
2018-04-27T00:56:14.851Z,101023
2018-04-27T01:01:19.326Z,101023
2018-04-27T01:06:22.442Z,101015
2018-04-27T01:11:25.532Z,101018
2018-04-27T01:16:29.965Z,101011
2018-04-27T01:21:34.182Z,101009
2018-04-27T01:26:38.411Z,101015
2018-04-27T01:31:43.094Z,101010
2018-04-27T01:36:47.314Z,101014
2018-04-27T01:41:51.531Z,101006
2018-04-27T01:46:54.620Z,101005
2018-04-27T01:51:58.494Z,100998
2018-04-27T01:57:02.324Z,100999
2018-04-27T02:02:06.167Z,100991
2018-04-27T02:07:09.244Z,100988
2018-04-27T02:12:12.335Z,100989
2018-04-27T02:17:16.194Z,100982
2018-04-27T02:22:19.269Z,100983
2018-04-27T02:27:22.758Z,100975
2018-04-27T02:32:26.976Z,100968
2018-04-27T02:37:31.507Z,100974
2018-04-27T02:42:35.728Z,100971
2018-04-27T02:47:40.163Z,100955
2018-04-27T02:52:44.626Z,100957
2018-04-27T02:57:49.054Z,100951
2018-04-27T03:02:53.295Z,100943
2018-04-27T03:07:57.148Z,100942
2018-04-27T03:13:00.619Z,100934
2018-04-27T03:18:04.091Z,100926
2018-04-27T03:23:07.951Z,100912
2018-04-27T03:28:11.026Z,100910
2018-04-27T03:33:14.099Z,100902
2018-04-27T03:38:18.313Z,100905
2018-04-27T03:43:24.250Z,100896
2018-04-27T03:48:28.681Z,100894
2018-04-27T03:53:32.573Z,100893
2018-04-27T03:58:37.003Z,100892
2018-04-27T04:03:57.706Z,100887
2018-04-27T04:09:01.193Z,100880
2018-04-27T04:14:05.059Z,100880
2018-04-27T04:19:08.144Z,100881
2018-04-27T04:24:11.981Z,100877
2018-04-27T04:29:15.827Z,100870
2018-04-27T04:34:18.953Z,100860
2018-04-27T04:39:22.811Z,100862
2018-04-27T04:44:25.879Z,100850
2018-04-27T04:49:29.357Z,100844
2018-04-27T04:54:33.749Z,100846
2018-04-27T04:59:37.256Z,100847
2018-04-27T05:04:41.475Z,100847
2018-04-27T05:09:45.674Z,100847
2018-04-27T05:14:50.107Z,100844
2018-04-27T05:19:54.870Z,100839
2018-04-27T05:24:59.021Z,100846
2018-04-27T05:30:02.107Z,100850
2018-04-27T05:35:06.537Z,100840
2018-04-27T05:40:10.973Z,100832
2018-04-27T05:45:15.405Z,100831
2018-04-27T05:50:18.468Z,100826
2018-04-27T05:55:22.692Z,100822
2018-04-27T06:00:27.119Z,100825
2018-04-27T06:05:31.550Z,100816
2018-04-27T06:10:35.991Z,100811
2018-04-27T06:15:40.574Z,100795
2018-04-27T06:20:44.068Z,100795
2018-04-27T06:25:48.577Z,100797
2018-04-27T06:30:52.375Z,100799
2018-04-27T06:35:56.803Z,100794
2018-04-27T06:41:01.238Z,100785
2018-04-27T06:46:04.327Z,100780
2018-04-27T06:51:08.207Z,100769
2018-04-27T06:56:13.034Z,100762
2018-04-27T07:01:16.128Z,100768
2018-04-27T07:06:19.206Z,100765
2018-04-27T07:11:22.296Z,100758
2018-04-27T07:16:25.793Z,100758
2018-04-27T07:21:29.287Z,100746
2018-04-27T07:26:33.138Z,100738
2018-04-27T07:31:36.238Z,100734
2018-04-27T07:36:40.088Z,100738
2018-04-27T07:41:43.950Z,100726
2018-04-27T07:46:47.432Z,100715
2018-04-27T07:51:50.530Z,100704
2018-04-27T07:56:53.627Z,100709
2018-04-27T08:01:57.880Z,100702
2018-04-27T08:07:02.114Z,100697
2018-04-27T08:12:06.719Z,100700
2018-04-27T08:17:09.806Z,100698
2018-04-27T08:22:12.899Z,100697
2018-04-27T08:27:16.395Z,100690
2018-04-27T08:32:20.830Z,100694
2018-04-27T08:37:24.315Z,100694
2018-04-27T08:42:28.170Z,100679
2018-04-27T08:47:32.611Z,100678
2018-04-27T08:52:37.056Z,100680
2018-04-27T08:57:40.147Z,100677
2018-04-27T09:02:43.295Z,100666
2018-04-27T09:07:47.683Z,100665
2018-04-27T09:12:52.134Z,100661
2018-04-27T09:17:56.387Z,100650
2018-04-27T09:22:59.511Z,100632
2018-04-27T09:28:03.382Z,100640
2018-04-27T09:33:07.990Z,100634
2018-04-27T09:38:12.486Z,100637
2018-04-27T09:43:16.723Z,100604
2018-04-27T09:48:20.963Z,100619
2018-04-27T09:53:25.398Z,100601
2018-04-27T09:58:29.838Z,100573
2018-04-27T10:03:34.438Z,100565
2018-04-27T10:08:38.898Z,100556
2018-04-27T10:13:42.395Z,100551
2018-04-27T10:18:46.619Z,100541
2018-04-27T10:23:49.730Z,100538
2018-04-27T10:28:53.965Z,100523
2018-04-27T10:33:58.408Z,100514
2018-04-27T10:39:02.266Z,100498
2018-04-27T10:44:06.711Z,100500
2018-04-27T10:49:11.167Z,100499
2018-04-27T10:54:15.631Z,100503
2018-04-27T10:59:19.176Z,100485
2018-04-27T11:04:22.287Z,100481
2018-04-27T11:09:26.732Z,100453
2018-04-27T11:14:31.178Z,100436
2018-04-27T11:19:35.625Z,100444
2018-04-27T11:24:39.492Z,100438
2018-04-27T11:29:43.935Z,100431
2018-04-27T11:34:47.410Z,100429
2018-04-27T11:39:51.845Z,100427
2018-04-27T11:44:56.273Z,100424
2018-04-27T11:50:00.710Z,100400
2018-04-27T11:55:04.567Z,100381
2018-04-27T12:00:09.006Z,100367
2018-04-27T12:05:12.101Z,100365
2018-04-27T12:10:16.557Z,100369
2018-04-27T12:15:21.023Z,100344
2018-04-27T12:20:26.140Z,100314
2018-04-27T12:25:30.923Z,100317
2018-04-27T12:30:34.403Z,100296
2018-04-27T12:35:37.507Z,100294
2018-04-27T12:40:40.636Z,100288
2018-04-27T12:45:44.143Z,100263
2018-04-27T12:50:47.250Z,100257
2018-04-27T12:55:50.360Z,100231
2018-04-27T13:00:54.228Z,100220
2018-04-27T13:05:57.731Z,100199
2018-04-27T13:11:01.587Z,100187
2018-04-27T13:16:05.123Z,100194
2018-04-27T13:21:08.219Z,100213
2018-04-27T13:26:11.324Z,100195
2018-04-27T13:31:15.959Z,100184
2018-04-27T13:36:20.401Z,100183
2018-04-27T13:41:24.864Z,100181
2018-04-27T13:46:29.323Z,100172
2018-04-27T13:51:33.762Z,100171
2018-04-27T13:56:37.643Z,100164
2018-04-27T14:01:42.096Z,100172
2018-04-27T14:06:45.195Z,100163
2018-04-27T14:11:49.654Z,100170
2018-04-27T14:16:53.548Z,100163
2018-04-27T14:21:57.595Z,100142
2018-04-27T14:27:02.114Z,100130
2018-04-27T14:32:06.562Z,100110
2018-04-27T14:37:10.808Z,100091
2018-04-27T14:42:15.246Z,100081
2018-04-27T14:47:19.851Z,100083
2018-04-27T14:52:24.296Z,100078
2018-04-27T14:57:27.803Z,100068
2018-04-27T15:02:32.246Z,100050
2018-04-27T15:07:37.990Z,100051
2018-04-27T15:12:42.592Z,100058
2018-04-27T15:17:47.058Z,100069
2018-04-27T15:22:52.303Z,100065
2018-04-27T15:27:56.739Z,100056
2018-04-27T15:33:00.619Z,100055
2018-04-27T15:38:05.215Z,100054
2018-04-27T15:43:09.646Z,100049
2018-04-27T15:48:14.094Z,100032
2018-04-27T15:53:18.540Z,100037
2018-04-27T15:58:21.622Z,100041
2018-04-27T16:03:24.718Z,100027
2018-04-27T16:08:28.223Z,100040
2018-04-27T16:13:51.995Z,100024
2018-04-27T16:18:58.017Z,100019
2018-04-27T16:24:02.244Z,100018
2018-04-27T16:29:09.256Z,100025
2018-04-27T16:34:14.388Z,100020
2018-04-27T16:39:17.506Z,100011
2018-04-27T16:44:21.367Z,100016
2018-04-27T16:49:25.796Z,100011
2018-04-27T16:54:28.884Z,100001
2018-04-27T16:59:32.390Z,99998
2018-04-27T17:04:35.484Z,99999
2018-04-27T17:09:39.332Z,100005
2018-04-27T17:14:42.846Z,100003
2018-04-27T17:19:47.455Z,100003
2018-04-27T17:24:51.719Z,100004
2018-04-27T17:29:55.611Z,100007
2018-04-27T17:34:59.559Z,100007
2018-04-27T17:40:03.954Z,100011
2018-04-27T17:45:08.234Z,100016
2018-04-27T17:50:11.759Z,100018
2018-04-27T17:55:16.213Z,100018
2018-04-27T18:00:19.318Z,100018
2018-04-27T18:05:23.163Z,100020
2018-04-27T18:10:27.027Z,100027
2018-04-27T18:15:31.264Z,100028
2018-04-27T18:20:35.710Z,100030
2018-04-27T18:25:40.244Z,100034
2018-04-27T18:30:44.150Z,100038
2018-04-27T18:35:47.635Z,100038
2018-04-27T18:40:50.724Z,100043
2018-04-27T18:45:54.590Z,100051
2018-04-27T18:50:58.064Z,100053
2018-04-27T18:56:01.163Z,100056
2018-04-27T19:01:05.604Z,100050
2018-04-27T19:06:09.108Z,100043
2018-04-27T19:11:12.614Z,100043
2018-04-27T19:16:16.478Z,100049
2018-04-27T19:21:21.083Z,100052
2018-04-27T19:26:25.584Z,100051
2018-04-27T19:31:28.668Z,100052
2018-04-27T19:36:32.902Z,100062
2018-04-27T19:41:36.427Z,100058
2018-04-27T19:46:41.037Z,100062
2018-04-27T19:51:44.579Z,100070
2018-04-27T19:56:48.455Z,100065
2018-04-27T20:01:51.960Z,100076
2018-04-27T20:06:57.099Z,100074
2018-04-27T20:12:00.595Z,100079
2018-04-27T20:17:05.223Z,100081
2018-04-27T20:22:20.546Z,100078
2018-04-27T20:27:46.288Z,100077
2018-04-27T20:32:50.130Z,100070
2018-04-27T20:38:02.486Z,100051
2018-04-27T20:43:11.299Z,100067
2018-04-27T20:48:15.717Z,100078
2018-04-27T20:53:19.567Z,100085
2018-04-27T20:58:24.015Z,100089
2018-04-27T21:03:28.671Z,100091
2018-04-27T21:08:33.141Z,100097
2018-04-27T21:13:36.247Z,100094
2018-04-27T21:18:40.679Z,100094
2018-04-27T21:23:44.179Z,100094
2018-04-27T21:28:48.414Z,100101
2018-04-27T21:33:57.163Z,100104
2018-04-27T21:39:11.351Z,100106
2018-04-27T21:44:15.365Z,100108
2018-04-27T21:49:19.807Z,100113
2018-04-27T21:54:25.434Z,100126
2018-04-27T21:59:42.846Z,100126
2018-04-27T22:04:45.971Z,100131
2018-04-27T22:09:49.838Z,100133
2018-04-27T22:14:54.463Z,100145
2018-04-27T22:19:59.797Z,100142
2018-04-27T22:25:13.909Z,100148
2018-04-27T22:30:32.111Z,100156
2018-04-27T22:35:36.553Z,100165
2018-04-27T22:40:42.906Z,100166
2018-04-27T22:45:58.745Z,100171
2018-04-27T22:51:04.351Z,100172
2018-04-27T22:56:07.836Z,100174
2018-04-27T23:01:13.178Z,100184
2018-04-27T23:06:17.043Z,100180
2018-04-27T23:11:23.909Z,100179
2018-04-27T23:16:27.855Z,100181
2018-04-27T23:27:11.302Z,100185
2018-04-27T23:32:15.742Z,100182
2018-04-27T23:37:20.161Z,100183
2018-04-27T23:42:26.757Z,100182
2018-04-27T23:47:30.999Z,100189
2018-04-27T23:52:34.858Z,100186
2018-04-27T23:57:37.951Z,100193
